Lyme Center, New Hampshire
Current Conditions -  °F | °C
As of 5:02 AM on Saturday 25 Oct 2014 (Local Time) from KLEB Reporting Station
Moderate Fog Moderate Fog  
Wind Chill:   Ceiling: 100
Heat Index:   Visibility: 0.5mi
Dew Point: -1°   Wind: 0mph
Humidity: 92%   Direction: NA
Pressure: 29.76"   Gusts: NA
Location:  43.8°N, 72.12°W
Report Text: KLEB 250902Z AUTO 00000KT 1/2SM FG VV001 01/M01 A2976 RMK AO2 T00061006
Loading
Personal Weather Stations






























Interactive Weather Map
Tropical Storm Tracking
New forecast layout! Learn more

10-Day Weather Forecast

Advertisements
Track Severe Weather on mobile